sensor_id;sensor_type;location;lat;lon;timestamp;P1;durP1;ratioP1;P2;durP2;ratioP2
74162;SDS011;62515;52.758;5.076;2022-12-18T00:02:15;54.15;;;24.60;;
74162;SDS011;62515;52.758;5.076;2022-12-18T00:04:41;52.55;;;24.92;;
74162;SDS011;62515;52.758;5.076;2022-12-18T00:07:08;59.17;;;21.83;;
74162;SDS011;62515;52.758;5.076;2022-12-18T00:09:36;88.55;;;75.53;;
74162;SDS011;62515;52.758;5.076;2022-12-18T00:12:06;85.00;;;51.70;;
74162;SDS011;62515;52.758;5.076;2022-12-18T00:14:41;50.88;;;23.13;;
74162;SDS011;62515;52.758;5.076;2022-12-18T00:17:08;51.33;;;21.08;;
74162;SDS011;62515;52.758;5.076;2022-12-18T00:19:36;51.45;;;22.17;;
74162;SDS011;62515;52.758;5.076;2022-12-18T00:22:02;54.65;;;25.70;;
74162;SDS011;62515;52.758;5.076;2022-12-18T00:24:29;68.88;;;22.55;;
74162;SDS011;62515;52.758;5.076;2022-12-18T00:26:56;41.38;;;18.98;;
74162;SDS011;62515;52.758;5.076;2022-12-18T00:29:23;54.35;;;33.03;;
74162;SDS011;62515;52.758;5.076;2022-12-18T00:31:50;48.13;;;23.20;;
74162;SDS011;62515;52.758;5.076;2022-12-18T00:34:17;68.22;;;47.03;;
74162;SDS011;62515;52.758;5.076;2022-12-18T00:36:47;45.95;;;19.17;;
74162;SDS011;62515;52.758;5.076;2022-12-18T00:39:14;60.58;;;22.58;;
74162;SDS011;62515;52.758;5.076;2022-12-18T00:41:43;58.08;;;32.80;;
74162;SDS011;62515;52.758;5.076;2022-12-18T00:44:30;59.15;;;27.55;;
74162;SDS011;62515;52.758;5.076;2022-12-18T00:46:57;54.17;;;36.33;;
74162;SDS011;62515;52.758;5.076;2022-12-18T00:49:24;49.53;;;27.35;;
74162;SDS011;62515;52.758;5.076;2022-12-18T00:51:52;37.42;;;21.08;;
74162;SDS011;62515;52.758;5.076;2022-12-18T00:54:19;39.75;;;17.50;;
74162;SDS011;62515;52.758;5.076;2022-12-18T00:56:46;48.85;;;20.48;;
74162;SDS011;62515;52.758;5.076;2022-12-18T00:59:16;39.78;;;17.08;;
74162;SDS011;62515;52.758;5.076;2022-12-18T01:01:44;46.15;;;20.23;;
74162;SDS011;62515;52.758;5.076;2022-12-18T01:04:11;53.97;;;19.45;;
74162;SDS011;62515;52.758;5.076;2022-12-18T01:06:38;50.38;;;20.52;;
74162;SDS011;62515;52.758;5.076;2022-12-18T01:09:07;41.13;;;14.68;;
74162;SDS011;62515;52.758;5.076;2022-12-18T01:11:35;36.88;;;19.52;;
74162;SDS011;62515;52.758;5.076;2022-12-18T01:14:03;56.90;;;18.50;;
74162;SDS011;62515;52.758;5.076;2022-12-18T01:16:30;37.20;;;15.00;;
74162;SDS011;62515;52.758;5.076;2022-12-18T01:18:57;27.13;;;14.40;;
74162;SDS011;62515;52.758;5.076;2022-12-18T01:21:26;39.85;;;18.17;;
74162;SDS011;62515;52.758;5.076;2022-12-18T01:23:53;44.58;;;16.50;;
74162;SDS011;62515;52.758;5.076;2022-12-18T01:26:24;45.42;;;20.05;;
74162;SDS011;62515;52.758;5.076;2022-12-18T01:28:53;52.60;;;25.88;;
74162;SDS011;62515;52.758;5.076;2022-12-18T01:31:22;35.20;;;21.45;;
74162;SDS011;62515;52.758;5.076;2022-12-18T01:33:51;54.30;;;20.15;;
74162;SDS011;62515;52.758;5.076;2022-12-18T01:36:20;37.45;;;19.67;;
74162;SDS011;62515;52.758;5.076;2022-12-18T01:38:49;42.83;;;17.23;;
74162;SDS011;62515;52.758;5.076;2022-12-18T01:41:19;37.75;;;24.45;;
74162;SDS011;62515;52.758;5.076;2022-12-18T01:43:51;43.58;;;18.45;;
74162;SDS011;62515;52.758;5.076;2022-12-18T01:46:20;38.40;;;20.08;;
74162;SDS011;62515;52.758;5.076;2022-12-18T01:48:52;45.63;;;17.98;;
74162;SDS011;62515;52.758;5.076;2022-12-18T01:51:26;41.45;;;15.45;;
74162;SDS011;62515;52.758;5.076;2022-12-18T01:53:53;40.58;;;19.23;;
74162;SDS011;62515;52.758;5.076;2022-12-18T01:56:20;43.17;;;18.20;;
74162;SDS011;62515;52.758;5.076;2022-12-18T01:58:52;45.10;;;20.35;;
74162;SDS011;62515;52.758;5.076;2022-12-18T02:01:22;29.55;;;13.70;;
74162;SDS011;62515;52.758;5.076;2022-12-18T02:03:51;47.40;;;28.60;;
74162;SDS011;62515;52.758;5.076;2022-12-18T02:06:19;38.67;;;14.90;;
74162;SDS011;62515;52.758;5.076;2022-12-18T02:08:55;43.40;;;17.38;;
74162;SDS011;62515;52.758;5.076;2022-12-18T02:11:32;45.55;;;24.85;;
74162;SDS011;62515;52.758;5.076;2022-12-18T02:14:15;33.65;;;21.00;;
74162;SDS011;62515;52.758;5.076;2022-12-18T02:16:50;40.70;;;19.90;;
74162;SDS011;62515;52.758;5.076;2022-12-18T02:19:34;39.83;;;17.45;;
74162;SDS011;62515;52.758;5.076;2022-12-18T02:22:24;37.92;;;17.65;;
74162;SDS011;62515;52.758;5.076;2022-12-18T02:24:59;49.10;;;19.02;;
74162;SDS011;62515;52.758;5.076;2022-12-18T02:27:39;44.90;;;17.20;;
74162;SDS011;62515;52.758;5.076;2022-12-18T02:30:08;45.50;;;18.92;;
74162;SDS011;62515;52.758;5.076;2022-12-18T02:32:39;47.50;;;20.75;;
74162;SDS011;62515;52.758;5.076;2022-12-18T02:35:13;41.15;;;17.95;;
74162;SDS011;62515;52.758;5.076;2022-12-18T02:37:43;54.92;;;19.27;;
74162;SDS011;62515;52.758;5.076;2022-12-18T02:40:12;56.83;;;22.10;;
74162;SDS011;62515;52.758;5.076;2022-12-18T02:42:42;49.13;;;20.70;;
74162;SDS011;62515;52.758;5.076;2022-12-18T02:45:13;67.40;;;41.28;;
74162;SDS011;62515;52.758;5.076;2022-12-18T02:47:40;43.65;;;20.65;;
74162;SDS011;62515;52.758;5.076;2022-12-18T02:50:13;52.28;;;20.67;;
74162;SDS011;62515;52.758;5.076;2022-12-18T02:55:23;38.47;;;15.98;;
74162;SDS011;62515;52.758;5.076;2022-12-18T02:58:05;44.90;;;17.17;;
74162;SDS011;62515;52.758;5.076;2022-12-18T03:00:41;32.20;;;16.40;;
74162;SDS011;62515;52.758;5.076;2022-12-18T03:03:16;45.45;;;23.85;;
74162;SDS011;62515;52.758;5.076;2022-12-18T03:05:49;50.00;;;28.23;;
74162;SDS011;62515;52.758;5.076;2022-12-18T03:08:20;43.92;;;22.73;;
74162;SDS011;62515;52.758;5.076;2022-12-18T03:10:51;33.08;;;18.33;;
74162;SDS011;62515;52.758;5.076;2022-12-18T03:13:27;47.28;;;23.83;;
74162;SDS011;62515;52.758;5.076;2022-12-18T03:16:00;36.72;;;15.95;;
74162;SDS011;62515;52.758;5.076;2022-12-18T03:18:32;36.08;;;17.73;;
74162;SDS011;62515;52.758;5.076;2022-12-18T03:21:04;42.15;;;16.80;;
74162;SDS011;62515;52.758;5.076;2022-12-18T03:23:36;46.53;;;17.80;;
74162;SDS011;62515;52.758;5.076;2022-12-18T03:26:10;44.30;;;20.70;;
74162;SDS011;62515;52.758;5.076;2022-12-18T03:28:43;41.95;;;19.33;;
74162;SDS011;62515;52.758;5.076;2022-12-18T03:31:17;34.53;;;18.30;;
74162;SDS011;62515;52.758;5.076;2022-12-18T03:33:47;30.13;;;17.10;;
74162;SDS011;62515;52.758;5.076;2022-12-18T03:36:23;51.05;;;20.63;;
74162;SDS011;62515;52.758;5.076;2022-12-18T03:38:50;56.85;;;21.92;;
74162;SDS011;62515;52.758;5.076;2022-12-18T03:41:19;45.58;;;20.35;;
74162;SDS011;62515;52.758;5.076;2022-12-18T03:44:19;47.58;;;32.40;;
74162;SDS011;62515;52.758;5.076;2022-12-18T03:46:51;44.85;;;24.30;;
74162;SDS011;62515;52.758;5.076;2022-12-18T03:49:25;51.50;;;32.83;;
74162;SDS011;62515;52.758;5.076;2022-12-18T03:52:03;57.25;;;29.88;;
74162;SDS011;62515;52.758;5.076;2022-12-18T03:54:38;30.50;;;18.92;;
74162;SDS011;62515;52.758;5.076;2022-12-18T03:57:13;47.47;;;36.05;;
74162;SDS011;62515;52.758;5.076;2022-12-18T03:59:44;49.72;;;23.05;;
74162;SDS011;62515;52.758;5.076;2022-12-18T04:02:17;65.63;;;26.05;;
74162;SDS011;62515;52.758;5.076;2022-12-18T04:04:45;41.13;;;24.15;;
74162;SDS011;62515;52.758;5.076;2022-12-18T04:07:16;38.58;;;24.27;;
74162;SDS011;62515;52.758;5.076;2022-12-18T04:09:43;48.70;;;30.92;;
74162;SDS011;62515;52.758;5.076;2022-12-18T04:12:13;32.10;;;16.02;;
74162;SDS011;62515;52.758;5.076;2022-12-18T04:14:40;37.75;;;19.33;;
74162;SDS011;62515;52.758;5.076;2022-12-18T04:17:09;35.55;;;16.88;;
74162;SDS011;62515;52.758;5.076;2022-12-18T04:19:36;57.22;;;26.55;;
74162;SDS011;62515;52.758;5.076;2022-12-18T04:22:03;29.27;;;18.45;;
74162;SDS011;62515;52.758;5.076;2022-12-18T04:24:36;44.53;;;24.80;;
74162;SDS011;62515;52.758;5.076;2022-12-18T04:27:11;35.20;;;15.20;;
74162;SDS011;62515;52.758;5.076;2022-12-18T04:29:42;36.72;;;19.00;;
74162;SDS011;62515;52.758;5.076;2022-12-18T04:32:11;33.38;;;15.63;;
74162;SDS011;62515;52.758;5.076;2022-12-18T04:34:40;40.65;;;17.63;;
74162;SDS011;62515;52.758;5.076;2022-12-18T04:37:07;41.92;;;25.58;;
74162;SDS011;62515;52.758;5.076;2022-12-18T04:39:34;45.25;;;21.88;;
74162;SDS011;62515;52.758;5.076;2022-12-18T04:42:07;39.28;;;25.35;;
74162;SDS011;62515;52.758;5.076;2022-12-18T04:44:34;38.35;;;20.23;;
74162;SDS011;62515;52.758;5.076;2022-12-18T04:47:00;59.63;;;37.42;;
74162;SDS011;62515;52.758;5.076;2022-12-18T04:49:29;48.30;;;22.40;;
74162;SDS011;62515;52.758;5.076;2022-12-18T04:51:55;46.90;;;21.23;;
74162;SDS011;62515;52.758;5.076;2022-12-18T04:54:22;45.03;;;19.15;;
74162;SDS011;62515;52.758;5.076;2022-12-18T04:56:49;26.33;;;15.32;;
74162;SDS011;62515;52.758;5.076;2022-12-18T04:59:16;23.60;;;14.07;;
74162;SDS011;62515;52.758;5.076;2022-12-18T05:01:43;38.03;;;16.27;;
74162;SDS011;62515;52.758;5.076;2022-12-18T05:04:10;44.83;;;20.65;;
74162;SDS011;62515;52.758;5.076;2022-12-18T05:06:38;44.40;;;16.83;;
74162;SDS011;62515;52.758;5.076;2022-12-18T05:09:06;43.38;;;15.18;;
74162;SDS011;62515;52.758;5.076;2022-12-18T05:11:35;46.90;;;20.95;;
74162;SDS011;62515;52.758;5.076;2022-12-18T05:14:02;30.35;;;16.00;;
74162;SDS011;62515;52.758;5.076;2022-12-18T05:16:29;28.95;;;12.13;;
74162;SDS011;62515;52.758;5.076;2022-12-18T05:18:56;34.92;;;16.63;;
74162;SDS011;62515;52.758;5.076;2022-12-18T05:21:23;42.40;;;15.85;;
74162;SDS011;62515;52.758;5.076;2022-12-18T05:23:51;41.88;;;18.25;;
74162;SDS011;62515;52.758;5.076;2022-12-18T05:26:18;31.83;;;14.57;;
74162;SDS011;62515;52.758;5.076;2022-12-18T05:28:45;34.22;;;16.67;;
74162;SDS011;62515;52.758;5.076;2022-12-18T05:31:12;30.52;;;15.00;;
74162;SDS011;62515;52.758;5.076;2022-12-18T05:33:40;38.47;;;16.85;;
74162;SDS011;62515;52.758;5.076;2022-12-18T05:36:08;27.88;;;14.98;;
74162;SDS011;62515;52.758;5.076;2022-12-18T05:38:36;25.67;;;14.07;;
74162;SDS011;62515;52.758;5.076;2022-12-18T05:41:06;24.63;;;13.85;;
74162;SDS011;62515;52.758;5.076;2022-12-18T05:43:34;33.35;;;14.35;;
74162;SDS011;62515;52.758;5.076;2022-12-18T05:46:03;35.70;;;16.05;;
74162;SDS011;62515;52.758;5.076;2022-12-18T05:48:31;32.92;;;16.65;;
74162;SDS011;62515;52.758;5.076;2022-12-18T05:51:02;23.70;;;14.55;;
74162;SDS011;62515;52.758;5.076;2022-12-18T05:53:31;24.60;;;15.10;;
74162;SDS011;62515;52.758;5.076;2022-12-18T05:55:59;27.75;;;14.45;;
74162;SDS011;62515;52.758;5.076;2022-12-18T05:58:28;27.15;;;14.95;;
74162;SDS011;62515;52.758;5.076;2022-12-18T06:00:55;29.70;;;16.08;;
74162;SDS011;62515;52.758;5.076;2022-12-18T06:03:23;28.63;;;14.52;;
74162;SDS011;62515;52.758;5.076;2022-12-18T06:05:57;48.28;;;23.30;;
74162;SDS011;62515;52.758;5.076;2022-12-18T06:08:24;32.35;;;16.55;;
74162;SDS011;62515;52.758;5.076;2022-12-18T06:10:51;36.67;;;15.82;;
74162;SDS011;62515;52.758;5.076;2022-12-18T06:13:19;30.85;;;14.57;;
74162;SDS011;62515;52.758;5.076;2022-12-18T06:15:47;35.70;;;15.23;;
74162;SDS011;62515;52.758;5.076;2022-12-18T06:18:14;31.15;;;15.73;;
74162;SDS011;62515;52.758;5.076;2022-12-18T06:20:41;37.85;;;16.80;;
74162;SDS011;62515;52.758;5.076;2022-12-18T06:23:08;32.22;;;14.90;;
74162;SDS011;62515;52.758;5.076;2022-12-18T06:25:37;32.50;;;15.07;;
74162;SDS011;62515;52.758;5.076;2022-12-18T06:28:04;32.72;;;14.25;;
74162;SDS011;62515;52.758;5.076;2022-12-18T06:30:31;26.95;;;13.98;;
74162;SDS011;62515;52.758;5.076;2022-12-18T06:32:59;26.00;;;18.08;;
74162;SDS011;62515;52.758;5.076;2022-12-18T06:35:26;21.75;;;12.73;;
74162;SDS011;62515;52.758;5.076;2022-12-18T06:37:53;31.80;;;13.55;;
74162;SDS011;62515;52.758;5.076;2022-12-18T06:40:20;24.33;;;12.68;;
74162;SDS011;62515;52.758;5.076;2022-12-18T06:42:47;30.05;;;15.65;;
74162;SDS011;62515;52.758;5.076;2022-12-18T06:45:14;33.80;;;12.70;;
74162;SDS011;62515;52.758;5.076;2022-12-18T06:47:41;33.00;;;12.77;;
74162;SDS011;62515;52.758;5.076;2022-12-18T06:50:10;29.67;;;15.52;;
74162;SDS011;62515;52.758;5.076;2022-12-18T06:52:37;31.23;;;13.48;;
74162;SDS011;62515;52.758;5.076;2022-12-18T06:55:09;21.83;;;11.73;;
74162;SDS011;62515;52.758;5.076;2022-12-18T06:57:37;27.83;;;15.82;;
74162;SDS011;62515;52.758;5.076;2022-12-18T07:00:05;21.33;;;11.63;;
74162;SDS011;62515;52.758;5.076;2022-12-18T07:02:32;23.08;;;12.05;;
74162;SDS011;62515;52.758;5.076;2022-12-18T07:05:00;19.70;;;13.77;;
74162;SDS011;62515;52.758;5.076;2022-12-18T07:07:37;19.15;;;11.43;;
74162;SDS011;62515;52.758;5.076;2022-12-18T07:10:04;21.83;;;14.32;;
74162;SDS011;62515;52.758;5.076;2022-12-18T07:12:31;24.90;;;14.50;;
74162;SDS011;62515;52.758;5.076;2022-12-18T07:14:58;26.27;;;13.55;;
74162;SDS011;62515;52.758;5.076;2022-12-18T07:17:25;22.65;;;13.45;;
74162;SDS011;62515;52.758;5.076;2022-12-18T07:19:51;24.02;;;13.48;;
74162;SDS011;62515;52.758;5.076;2022-12-18T07:22:18;27.70;;;16.17;;
74162;SDS011;62515;52.758;5.076;2022-12-18T07:24:46;26.45;;;17.65;;
74162;SDS011;62515;52.758;5.076;2022-12-18T07:27:13;23.65;;;16.25;;
74162;SDS011;62515;52.758;5.076;2022-12-18T07:29:40;22.75;;;13.43;;
74162;SDS011;62515;52.758;5.076;2022-12-18T07:32:06;28.20;;;14.75;;
74162;SDS011;62515;52.758;5.076;2022-12-18T07:34:34;27.60;;;15.52;;
74162;SDS011;62515;52.758;5.076;2022-12-18T07:37:00;27.52;;;12.95;;
74162;SDS011;62515;52.758;5.076;2022-12-18T07:39:27;28.17;;;11.68;;
74162;SDS011;62515;52.758;5.076;2022-12-18T07:41:55;22.13;;;12.25;;
74162;SDS011;62515;52.758;5.076;2022-12-18T07:44:42;25.15;;;12.60;;
74162;SDS011;62515;52.758;5.076;2022-12-18T07:47:09;21.52;;;12.65;;
74162;SDS011;62515;52.758;5.076;2022-12-18T07:49:37;21.90;;;13.63;;
74162;SDS011;62515;52.758;5.076;2022-12-18T07:52:04;20.15;;;14.57;;
74162;SDS011;62515;52.758;5.076;2022-12-18T07:54:31;25.77;;;22.63;;
74162;SDS011;62515;52.758;5.076;2022-12-18T07:56:59;15.70;;;12.23;;
74162;SDS011;62515;52.758;5.076;2022-12-18T07:59:26;16.02;;;11.38;;
74162;SDS011;62515;52.758;5.076;2022-12-18T08:01:52;18.85;;;11.82;;
74162;SDS011;62515;52.758;5.076;2022-12-18T08:04:20;15.20;;;12.25;;
74162;SDS011;62515;52.758;5.076;2022-12-18T08:06:46;24.58;;;13.02;;
74162;SDS011;62515;52.758;5.076;2022-12-18T08:09:13;24.08;;;15.35;;
74162;SDS011;62515;52.758;5.076;2022-12-18T08:11:40;27.58;;;14.50;;
74162;SDS011;62515;52.758;5.076;2022-12-18T08:14:09;22.48;;;12.98;;
74162;SDS011;62515;52.758;5.076;2022-12-18T08:16:36;23.23;;;13.73;;
74162;SDS011;62515;52.758;5.076;2022-12-18T08:19:03;17.20;;;11.23;;
74162;SDS011;62515;52.758;5.076;2022-12-18T08:21:30;16.08;;;11.57;;
74162;SDS011;62515;52.758;5.076;2022-12-18T08:23:58;21.13;;;13.98;;
74162;SDS011;62515;52.758;5.076;2022-12-18T08:26:28;25.38;;;12.35;;
74162;SDS011;62515;52.758;5.076;2022-12-18T08:28:57;18.23;;;10.10;;
74162;SDS011;62515;52.758;5.076;2022-12-18T08:31:27;22.70;;;13.07;;
74162;SDS011;62515;52.758;5.076;2022-12-18T08:33:56;26.42;;;18.67;;
74162;SDS011;62515;52.758;5.076;2022-12-18T08:36:24;26.60;;;23.38;;
74162;SDS011;62515;52.758;5.076;2022-12-18T08:38:52;17.67;;;11.32;;
74162;SDS011;62515;52.758;5.076;2022-12-18T08:41:19;24.35;;;16.85;;
74162;SDS011;62515;52.758;5.076;2022-12-18T08:43:47;27.13;;;11.65;;
74162;SDS011;62515;52.758;5.076;2022-12-18T08:46:34;18.35;;;13.63;;
74162;SDS011;62515;52.758;5.076;2022-12-18T08:49:03;36.47;;;16.48;;
74162;SDS011;62515;52.758;5.076;2022-12-18T08:51:31;26.02;;;13.82;;
74162;SDS011;62515;52.758;5.076;2022-12-18T08:53:58;26.35;;;13.80;;
74162;SDS011;62515;52.758;5.076;2022-12-18T08:56:25;19.83;;;12.43;;
74162;SDS011;62515;52.758;5.076;2022-12-18T08:58:52;20.42;;;11.75;;
74162;SDS011;62515;52.758;5.076;2022-12-18T09:01:19;21.70;;;13.45;;
74162;SDS011;62515;52.758;5.076;2022-12-18T09:03:48;25.42;;;14.38;;
74162;SDS011;62515;52.758;5.076;2022-12-18T09:06:16;22.65;;;14.60;;
74162;SDS011;62515;52.758;5.076;2022-12-18T09:08:44;22.77;;;14.27;;
74162;SDS011;62515;52.758;5.076;2022-12-18T09:11:12;22.23;;;14.00;;
74162;SDS011;62515;52.758;5.076;2022-12-18T09:13:41;23.08;;;12.40;;
74162;SDS011;62515;52.758;5.076;2022-12-18T09:16:08;19.90;;;12.52;;
74162;SDS011;62515;52.758;5.076;2022-12-18T09:18:35;20.60;;;13.00;;
74162;SDS011;62515;52.758;5.076;2022-12-18T09:21:15;15.70;;;12.20;;
74162;SDS011;62515;52.758;5.076;2022-12-18T09:23:50;22.38;;;14.00;;
74162;SDS011;62515;52.758;5.076;2022-12-18T09:26:17;22.55;;;13.88;;
74162;SDS011;62515;52.758;5.076;2022-12-18T09:28:44;13.18;;;9.38;;
74162;SDS011;62515;52.758;5.076;2022-12-18T09:31:11;23.02;;;12.18;;
74162;SDS011;62515;52.758;5.076;2022-12-18T09:33:39;20.23;;;10.23;;
74162;SDS011;62515;52.758;5.076;2022-12-18T09:36:07;18.02;;;10.77;;
74162;SDS011;62515;52.758;5.076;2022-12-18T09:38:42;20.33;;;11.10;;
74162;SDS011;62515;52.758;5.076;2022-12-18T09:41:17;16.45;;;11.30;;
74162;SDS011;62515;52.758;5.076;2022-12-18T09:43:55;16.42;;;10.90;;
74162;SDS011;62515;52.758;5.076;2022-12-18T09:46:26;13.48;;;9.98;;
74162;SDS011;62515;52.758;5.076;2022-12-18T09:48:58;16.25;;;9.68;;
74162;SDS011;62515;52.758;5.076;2022-12-18T09:51:28;19.08;;;13.52;;
74162;SDS011;62515;52.758;5.076;2022-12-18T09:54:03;21.30;;;12.27;;
74162;SDS011;62515;52.758;5.076;2022-12-18T09:56:34;19.15;;;13.70;;
74162;SDS011;62515;52.758;5.076;2022-12-18T09:59:04;20.58;;;11.02;;
74162;SDS011;62515;52.758;5.076;2022-12-18T10:01:31;15.25;;;10.23;;
74162;SDS011;62515;52.758;5.076;2022-12-18T10:04:09;17.60;;;11.90;;
74162;SDS011;62515;52.758;5.076;2022-12-18T10:06:38;15.73;;;11.48;;
74162;SDS011;62515;52.758;5.076;2022-12-18T10:09:16;14.50;;;11.80;;
74162;SDS011;62515;52.758;5.076;2022-12-18T10:11:52;16.02;;;10.27;;
74162;SDS011;62515;52.758;5.076;2022-12-18T10:14:23;13.98;;;11.05;;
74162;SDS011;62515;52.758;5.076;2022-12-18T10:16:58;18.17;;;11.70;;
74162;SDS011;62515;52.758;5.076;2022-12-18T10:19:34;18.10;;;10.60;;
74162;SDS011;62515;52.758;5.076;2022-12-18T10:22:11;14.05;;;8.57;;
74162;SDS011;62515;52.758;5.076;2022-12-18T10:24:52;13.32;;;9.52;;
74162;SDS011;62515;52.758;5.076;2022-12-18T10:27:26;16.80;;;10.57;;
74162;SDS011;62515;52.758;5.076;2022-12-18T10:29:55;14.52;;;9.02;;
74162;SDS011;62515;52.758;5.076;2022-12-18T10:32:23;13.93;;;9.00;;
74162;SDS011;62515;52.758;5.076;2022-12-18T10:34:52;15.15;;;10.32;;
74162;SDS011;62515;52.758;5.076;2022-12-18T10:37:27;13.77;;;9.45;;
74162;SDS011;62515;52.758;5.076;2022-12-18T10:40:06;11.75;;;9.40;;
74162;SDS011;62515;52.758;5.076;2022-12-18T10:42:47;16.55;;;10.90;;
74162;SDS011;62515;52.758;5.076;2022-12-18T10:45:29;20.42;;;8.95;;
74162;SDS011;62515;52.758;5.076;2022-12-18T10:47:56;11.98;;;8.13;;
74162;SDS011;62515;52.758;5.076;2022-12-18T10:50:24;14.00;;;9.55;;
74162;SDS011;62515;52.758;5.076;2022-12-18T10:53:18;11.52;;;8.43;;
74162;SDS011;62515;52.758;5.076;2022-12-18T10:55:48;18.75;;;10.10;;
74162;SDS011;62515;52.758;5.076;2022-12-18T10:58:18;11.60;;;9.13;;
74162;SDS011;62515;52.758;5.076;2022-12-18T11:01:05;15.35;;;9.63;;
74162;SDS011;62515;52.758;5.076;2022-12-18T11:03:35;12.15;;;10.32;;
74162;SDS011;62515;52.758;5.076;2022-12-18T11:06:05;13.88;;;8.45;;
74162;SDS011;62515;52.758;5.076;2022-12-18T11:08:34;14.35;;;9.48;;
74162;SDS011;62515;52.758;5.076;2022-12-18T11:11:02;60.58;;;44.53;;
74162;SDS011;62515;52.758;5.076;2022-12-18T11:13:33;13.73;;;9.98;;
74162;SDS011;62515;52.758;5.076;2022-12-18T11:16:00;17.80;;;9.45;;
74162;SDS011;62515;52.758;5.076;2022-12-18T11:18:28;11.98;;;8.88;;
74162;SDS011;62515;52.758;5.076;2022-12-18T11:20:58;13.38;;;9.05;;
74162;SDS011;62515;52.758;5.076;2022-12-18T11:23:33;14.18;;;8.85;;
74162;SDS011;62515;52.758;5.076;2022-12-18T11:26:01;16.08;;;8.55;;
74162;SDS011;62515;52.758;5.076;2022-12-18T11:28:36;15.48;;;11.65;;
74162;SDS011;62515;52.758;5.076;2022-12-18T11:31:09;15.60;;;9.82;;
74162;SDS011;62515;52.758;5.076;2022-12-18T11:33:44;9.50;;;7.30;;
74162;SDS011;62515;52.758;5.076;2022-12-18T11:36:36;12.00;;;8.35;;
74162;SDS011;62515;52.758;5.076;2022-12-18T11:39:08;16.30;;;10.30;;
74162;SDS011;62515;52.758;5.076;2022-12-18T11:41:43;12.57;;;9.38;;
74162;SDS011;62515;52.758;5.076;2022-12-18T11:47:07;9.02;;;7.47;;
74162;SDS011;62515;52.758;5.076;2022-12-18T11:49:41;12.82;;;8.50;;
74162;SDS011;62515;52.758;5.076;2022-12-18T11:52:09;13.05;;;8.98;;
74162;SDS011;62515;52.758;5.076;2022-12-18T11:54:42;11.63;;;8.15;;
74162;SDS011;62515;52.758;5.076;2022-12-18T11:57:13;19.48;;;10.02;;
74162;SDS011;62515;52.758;5.076;2022-12-18T11:59:48;12.65;;;8.30;;
74162;SDS011;62515;52.758;5.076;2022-12-18T12:05:01;7.72;;;6.18;;
74162;SDS011;62515;52.758;5.076;2022-12-18T12:07:40;16.73;;;8.63;;
74162;SDS011;62515;52.758;5.076;2022-12-18T12:10:25;15.77;;;7.95;;
74162;SDS011;62515;52.758;5.076;2022-12-18T12:16:10;8.88;;;6.93;;
74162;SDS011;62515;52.758;5.076;2022-12-18T12:18:47;10.40;;;7.32;;
74162;SDS011;62515;52.758;5.076;2022-12-18T12:21:23;11.93;;;7.78;;
74162;SDS011;62515;52.758;5.076;2022-12-18T12:23:57;10.95;;;8.63;;
74162;SDS011;62515;52.758;5.076;2022-12-18T12:26:33;10.18;;;8.13;;
74162;SDS011;62515;52.758;5.076;2022-12-18T12:29:13;10.20;;;7.50;;
74162;SDS011;62515;52.758;5.076;2022-12-18T12:31:57;13.50;;;8.38;;
74162;SDS011;62515;52.758;5.076;2022-12-18T12:34:34;11.32;;;7.65;;
74162;SDS011;62515;52.758;5.076;2022-12-18T12:37:16;11.70;;;9.75;;
74162;SDS011;62515;52.758;5.076;2022-12-18T12:39:50;12.40;;;7.45;;
74162;SDS011;62515;52.758;5.076;2022-12-18T12:45:13;10.85;;;7.35;;
74162;SDS011;62515;52.758;5.076;2022-12-18T12:47:45;14.00;;;8.05;;
74162;SDS011;62515;52.758;5.076;2022-12-18T12:50:16;11.63;;;8.02;;
74162;SDS011;62515;52.758;5.076;2022-12-18T12:52:46;7.95;;;6.05;;
74162;SDS011;62515;52.758;5.076;2022-12-18T12:55:17;13.73;;;7.75;;
74162;SDS011;62515;52.758;5.076;2022-12-18T12:57:48;9.88;;;6.88;;
74162;SDS011;62515;52.758;5.076;2022-12-18T13:00:24;11.70;;;7.75;;
74162;SDS011;62515;52.758;5.076;2022-12-18T13:03:01;14.05;;;8.55;;
74162;SDS011;62515;52.758;5.076;2022-12-18T13:05:40;11.85;;;7.68;;
74162;SDS011;62515;52.758;5.076;2022-12-18T13:08:22;18.27;;;11.93;;
74162;SDS011;62515;52.758;5.076;2022-12-18T13:10:51;11.02;;;8.02;;
74162;SDS011;62515;52.758;5.076;2022-12-18T13:13:48;11.27;;;8.25;;
74162;SDS011;62515;52.758;5.076;2022-12-18T13:16:18;16.10;;;8.63;;
74162;SDS011;62515;52.758;5.076;2022-12-18T13:18:50;13.77;;;8.90;;
74162;SDS011;62515;52.758;5.076;2022-12-18T13:21:21;13.18;;;8.48;;
74162;SDS011;62515;52.758;5.076;2022-12-18T13:23:50;10.30;;;7.75;;
74162;SDS011;62515;52.758;5.076;2022-12-18T13:26:31;12.43;;;7.70;;
74162;SDS011;62515;52.758;5.076;2022-12-18T13:28:58;9.27;;;7.43;;
74162;SDS011;62515;52.758;5.076;2022-12-18T13:43:15;11.25;;;8.82;;
74162;SDS011;62515;52.758;5.076;2022-12-18T13:46:05;8.32;;;6.60;;
74162;SDS011;62515;52.758;5.076;2022-12-18T13:48:48;10.70;;;7.60;;
74162;SDS011;62515;52.758;5.076;2022-12-18T13:51:23;14.18;;;12.68;;
74162;SDS011;62515;52.758;5.076;2022-12-18T13:53:52;15.23;;;9.93;;
74162;SDS011;62515;52.758;5.076;2022-12-18T13:56:24;13.85;;;12.48;;
74162;SDS011;62515;52.758;5.076;2022-12-18T14:01:51;14.05;;;12.18;;
74162;SDS011;62515;52.758;5.076;2022-12-18T14:04:22;11.05;;;9.63;;
74162;SDS011;62515;52.758;5.076;2022-12-18T14:06:55;14.57;;;8.63;;
74162;SDS011;62515;52.758;5.076;2022-12-18T14:09:25;12.05;;;7.80;;
74162;SDS011;62515;52.758;5.076;2022-12-18T14:11:55;10.63;;;7.25;;
74162;SDS011;62515;52.758;5.076;2022-12-18T14:14:44;9.63;;;8.50;;
74162;SDS011;62515;52.758;5.076;2022-12-18T14:17:14;9.77;;;8.77;;
74162;SDS011;62515;52.758;5.076;2022-12-18T14:19:43;10.30;;;6.78;;
74162;SDS011;62515;52.758;5.076;2022-12-18T14:22:18;12.55;;;8.10;;
74162;SDS011;62515;52.758;5.076;2022-12-18T14:24:47;10.15;;;7.20;;
74162;SDS011;62515;52.758;5.076;2022-12-18T14:27:37;13.10;;;7.93;;
74162;SDS011;62515;52.758;5.076;2022-12-18T14:30:18;11.65;;;8.07;;
74162;SDS011;62515;52.758;5.076;2022-12-18T14:32:59;10.45;;;8.13;;
74162;SDS011;62515;52.758;5.076;2022-12-18T14:35:27;12.63;;;8.07;;
74162;SDS011;62515;52.758;5.076;2022-12-18T14:38:09;11.25;;;7.97;;
74162;SDS011;62515;52.758;5.076;2022-12-18T14:40:54;11.60;;;8.73;;
74162;SDS011;62515;52.758;5.076;2022-12-18T14:43:24;13.05;;;8.73;;
74162;SDS011;62515;52.758;5.076;2022-12-18T14:45:52;11.20;;;7.97;;
74162;SDS011;62515;52.758;5.076;2022-12-18T14:48:20;12.05;;;7.93;;
74162;SDS011;62515;52.758;5.076;2022-12-18T14:50:57;12.88;;;9.50;;
74162;SDS011;62515;52.758;5.076;2022-12-18T14:53:33;12.90;;;8.40;;
74162;SDS011;62515;52.758;5.076;2022-12-18T14:56:03;10.50;;;8.15;;
74162;SDS011;62515;52.758;5.076;2022-12-18T14:58:43;11.40;;;7.93;;
74162;SDS011;62515;52.758;5.076;2022-12-18T15:01:17;11.98;;;8.30;;
74162;SDS011;62515;52.758;5.076;2022-12-18T15:03:46;11.35;;;8.38;;
74162;SDS011;62515;52.758;5.076;2022-12-18T15:06:16;13.02;;;8.57;;
74162;SDS011;62515;52.758;5.076;2022-12-18T15:08:52;11.00;;;8.07;;
74162;SDS011;62515;52.758;5.076;2022-12-18T15:11:26;10.48;;;7.60;;
74162;SDS011;62515;52.758;5.076;2022-12-18T15:13:57;13.30;;;8.32;;
74162;SDS011;62515;52.758;5.076;2022-12-18T15:16:25;11.38;;;7.38;;
74162;SDS011;62515;52.758;5.076;2022-12-18T15:18:52;10.35;;;8.20;;